EDT,Max TemperatureF,Mean TemperatureF,Min TemperatureF,Max Dew PointF,MeanDew PointF,Min DewpointF,Max Humidity, Mean Humidity, Min Humidity, Max Sea Level PressureIn, Mean Sea Level PressureIn, Min Sea Level PressureIn, Max VisibilityMiles, Mean VisibilityMiles, Min VisibilityMiles, Max Wind SpeedMPH, Mean Wind SpeedMPH, Max Gust SpeedMPH,PrecipitationIn, CloudCover, Events, WindDirDegrees
2013-4-1,61,48,34,46,40,12,93,64,35,29.83,29.65,29.56,10,7,2,29,13,40,0.08,6,Rain,242
2013-4-2,44,35,26,17,11,5,63,42,21,29.99,29.91,29.85,10,10,10,23,10,34,0.00,2,,285
2013-4-3,46,39,31,14,10,7,47,34,20,30.20,30.04,29.98,10,10,10,28,16,33,0.00,1,,291
2013-4-4,54,42,30,30,18,11,76,47,18,30.33,30.21,30.10,10,10,10,20,10,24,0.00,3,,245
2013-4-5,62,50,38,36,27,13,76,48,19,30.08,29.86,29.65,10,10,10,23,9,32,0.00,4,,241
2013-4-6,49,40,31,24,12,-1,59,36,13,30.33,30.17,29.91,10,10,10,24,10,30,0.00,1,,303
2013-4-7,54,41,27,42,30,18,80,58,36,30.34,30.21,30.05,10,10,10,30,12,39,0.00,4,,194
2013-4-8,65,55,44,44,42,38,92,74,55,30.11,30.04,29.98,10,10,10,15,7,17,0.00,5,,203
2013-4-9,77,62,46,50,43,35,93,60,27,30.09,29.95,29.86,10,7,0,24,10,32,0.01,6,Fog-Rain,209
2013-4-10,67,56,45,47,44,42,93,71,48,29.99,29.93,29.87,10,9,2,21,6,24,0.47,6,Rain-Thunderstorm,138
2013-4-11,55,50,45,46,42,32,93,74,54,30.12,29.97,29.84,10,10,7,16,7,26,T,8,Rain,57
2013-4-12,46,43,39,38,35,30,92,76,60,30.14,29.97,29.76,10,6,2,23,14,32,0.54,8,Rain,67
2013-4-13,56,47,38,37,34,30,92,65,38,29.95,29.83,29.72,10,10,10,23,9,29,T,7,Rain,339
2013-4-14,56,48,40,37,30,22,82,58,33,30.23,30.04,29.94,10,10,10,21,10,33,0.00,5,,281
2013-4-15,54,46,37,39,31,23,93,67,41,30.42,30.35,30.23,10,10,10,16,7,20,0.00,4,,171
2013-4-16,61,48,35,47,42,34,100,78,55,30.42,30.31,30.13,10,10,2,26,12,40,T,4,Fog-Rain,192
2013-4-17,69,56,43,52,41,29,86,54,22,30.33,30.19,30.09,10,10,10,20,8,28,0.02,5,,257
2013-4-18,59,49,39,46,38,32,86,63,39,30.42,30.34,30.17,10,10,10,17,8,22,0.00,4,,167
2013-4-19,71,62,52,63,58,46,96,83,70,30.17,29.93,29.73,10,8,2,32,17,46,0.09,8,Rain,194
2013-4-20,67,56,44,61,42,25,93,63,33,30.23,29.87,29.65,10,9,6,26,12,33,0.42,7,Rain,262
2013-4-21,54,45,35,30,22,18,70,47,24,30.68,30.51,30.27,10,10,10,23,9,32,0.00,2,,328
2013-4-22,54,45,35,33,30,24,82,59,35,30.73,30.65,30.58,10,10,10,20,11,25,0.00,4,,53
2013-4-23,45,43,40,41,38,30,89,80,70,30.56,30.33,30.07,10,8,3,24,16,32,0.01,8,Rain,24
2013-4-24,72,58,43,48,43,39,93,65,37,30.03,29.94,29.86,10,10,10,23,14,31,0.00,6,,244
2013-4-25,65,57,48,50,36,20,89,54,19,30.27,30.07,29.89,10,10,10,20,8,26,0.04,5,Rain,272
2013-4-26,61,52,43,41,34,22,89,61,32,30.42,30.36,30.28,10,10,10,17,7,26,0.00,1,,121
2013-4-27,59,49,38,42,37,32,92,65,37,30.43,30.38,30.33,10,10,7,16,6,22,0.00,2,,172
2013-4-28,62,50,38,45,36,19,93,60,26,30.35,30.31,30.27,10,10,10,21,8,25,0.00,4,,174
2013-4-29,62,54,45,47,38,27,93,60,27,30.29,30.27,30.25,10,10,10,18,7,22,0.00,5,,161
2013-4-30,66,53,40,41,32,24,83,53,23,30.37,30.32,30.27,10,10,10,16,5,20,0.00,2,Fog,171